sensor_id;sensor_type;location;lat;lon;timestamp;temperature;humidity
63899;HTU21D;50070;-32.946;-60.652;2022-07-10T00:01:20;22.36;70.07
63899;HTU21D;50070;-32.946;-60.652;2022-07-10T00:03:47;22.37;69.94
63899;HTU21D;50070;-32.946;-60.652;2022-07-10T00:06:15;22.38;69.51
63899;HTU21D;50070;-32.946;-60.652;2022-07-10T00:08:41;22.35;69.70
63899;HTU21D;50070;-32.946;-60.652;2022-07-10T00:11:11;22.34;69.28
63899;HTU21D;50070;-32.946;-60.652;2022-07-10T00:13:37;22.24;70.32
63899;HTU21D;50070;-32.946;-60.652;2022-07-10T00:16:04;22.22;70.08
63899;HTU21D;50070;-32.946;-60.652;2022-07-10T00:18:30;22.23;69.90
63899;HTU21D;50070;-32.946;-60.652;2022-07-10T00:20:56;22.10;69.90
63899;HTU21D;50070;-32.946;-60.652;2022-07-10T00:23:23;22.18;70.33
63899;HTU21D;50070;-32.946;-60.652;2022-07-10T00:25:49;22.17;69.76
63899;HTU21D;50070;-32.946;-60.652;2022-07-10T00:28:15;22.14;70.18
63899;HTU21D;50070;-32.946;-60.652;2022-07-10T00:30:41;22.14;69.06
63899;HTU21D;50070;-32.946;-60.652;2022-07-10T00:33:07;22.09;69.60
63899;HTU21D;50070;-32.946;-60.652;2022-07-10T00:35:33;22.14;69.07
63899;HTU21D;50070;-32.946;-60.652;2022-07-10T00:38:00;22.04;69.80
63899;HTU21D;50070;-32.946;-60.652;2022-07-10T00:40:26;21.99;69.90
63899;HTU21D;50070;-32.946;-60.652;2022-07-10T00:42:52;21.92;70.10
63899;HTU21D;50070;-32.946;-60.652;2022-07-10T00:45:18;22.04;69.69
63899;HTU21D;50070;-32.946;-60.652;2022-07-10T00:47:44;21.99;69.30
63899;HTU21D;50070;-32.946;-60.652;2022-07-10T00:50:11;21.95;69.65
63899;HTU21D;50070;-32.946;-60.652;2022-07-10T00:52:38;21.98;69.74
63899;HTU21D;50070;-32.946;-60.652;2022-07-10T00:55:05;21.94;69.30
63899;HTU21D;50070;-32.946;-60.652;2022-07-10T00:57:31;21.94;69.90
63899;HTU21D;50070;-32.946;-60.652;2022-07-10T00:59:58;21.84;69.94
63899;HTU21D;50070;-32.946;-60.652;2022-07-10T01:02:24;21.89;69.52
63899;HTU21D;50070;-32.946;-60.652;2022-07-10T01:04:50;21.94;69.78
63899;HTU21D;50070;-32.946;-60.652;2022-07-10T01:07:17;21.88;69.85
63899;HTU21D;50070;-32.946;-60.652;2022-07-10T01:09:43;21.93;69.86
63899;HTU21D;50070;-32.946;-60.652;2022-07-10T01:12:10;21.85;69.60
63899;HTU21D;50070;-32.946;-60.652;2022-07-10T01:14:37;21.90;69.99
63899;HTU21D;50070;-32.946;-60.652;2022-07-10T01:17:06;21.74;69.71
63899;HTU21D;50070;-32.946;-60.652;2022-07-10T01:19:32;21.73;70.28
63899;HTU21D;50070;-32.946;-60.652;2022-07-10T01:21:58;21.84;69.81
63899;HTU21D;50070;-32.946;-60.652;2022-07-10T01:24:24;21.90;69.15
63899;HTU21D;50070;-32.946;-60.652;2022-07-10T01:26:51;21.73;70.30
63899;HTU21D;50070;-32.946;-60.652;2022-07-10T01:29:18;21.58;70.32
63899;HTU21D;50070;-32.946;-60.652;2022-07-10T01:31:45;21.79;69.86
63899;HTU21D;50070;-32.946;-60.652;2022-07-10T01:34:11;21.82;69.56
63899;HTU21D;50070;-32.946;-60.652;2022-07-10T01:36:38;21.67;69.71
63899;HTU21D;50070;-32.946;-60.652;2022-07-10T01:39:05;21.80;69.13
63899;HTU21D;50070;-32.946;-60.652;2022-07-10T01:41:32;21.78;69.40
63899;HTU21D;50070;-32.946;-60.652;2022-07-10T01:43:58;21.63;69.45
63899;HTU21D;50070;-32.946;-60.652;2022-07-10T01:46:24;21.66;69.50
63899;HTU21D;50070;-32.946;-60.652;2022-07-10T01:48:51;21.72;68.79
63899;HTU21D;50070;-32.946;-60.652;2022-07-10T01:51:19;21.80;68.77
63899;HTU21D;50070;-32.946;-60.652;2022-07-10T01:53:45;21.75;68.40
63899;HTU21D;50070;-32.946;-60.652;2022-07-10T01:56:12;21.78;68.69
63899;HTU21D;50070;-32.946;-60.652;2022-07-10T01:58:39;21.78;68.58
63899;HTU21D;50070;-32.946;-60.652;2022-07-10T02:01:06;21.73;68.52
63899;HTU21D;50070;-32.946;-60.652;2022-07-10T02:03:32;21.63;69.27
63899;HTU21D;50070;-32.946;-60.652;2022-07-10T02:06:16;21.60;68.65
63899;HTU21D;50070;-32.946;-60.652;2022-07-10T02:08:43;21.72;68.49
63899;HTU21D;50070;-32.946;-60.652;2022-07-10T02:11:09;21.64;68.07
63899;HTU21D;50070;-32.946;-60.652;2022-07-10T02:13:35;21.60;69.31
63899;HTU21D;50070;-32.946;-60.652;2022-07-10T02:16:01;21.62;68.92
63899;HTU21D;50070;-32.946;-60.652;2022-07-10T02:18:28;21.57;69.07
63899;HTU21D;50070;-32.946;-60.652;2022-07-10T02:20:56;21.52;69.11
63899;HTU21D;50070;-32.946;-60.652;2022-07-10T02:23:23;21.51;69.10
63899;HTU21D;50070;-32.946;-60.652;2022-07-10T02:25:49;21.54;69.04
63899;HTU21D;50070;-32.946;-60.652;2022-07-10T02:28:15;21.44;69.45
63899;HTU21D;50070;-32.946;-60.652;2022-07-10T02:30:41;21.30;69.89
63899;HTU21D;50070;-32.946;-60.652;2022-07-10T02:33:08;21.42;69.14
63899;HTU21D;50070;-32.946;-60.652;2022-07-10T02:35:34;21.38;68.98
63899;HTU21D;50070;-32.946;-60.652;2022-07-10T02:38:00;21.30;69.33
63899;HTU21D;50070;-32.946;-60.652;2022-07-10T02:40:26;21.33;69.93
63899;HTU21D;50070;-32.946;-60.652;2022-07-10T02:42:53;21.23;70.21
63899;HTU21D;50070;-32.946;-60.652;2022-07-10T02:45:19;21.25;70.29
63899;HTU21D;50070;-32.946;-60.652;2022-07-10T02:47:45;21.20;70.27
63899;HTU21D;50070;-32.946;-60.652;2022-07-10T02:50:11;21.14;70.58
63899;HTU21D;50070;-32.946;-60.652;2022-07-10T02:52:37;21.14;70.62
63899;HTU21D;50070;-32.946;-60.652;2022-07-10T02:55:04;21.13;70.31
63899;HTU21D;50070;-32.946;-60.652;2022-07-10T02:57:30;21.13;70.31
63899;HTU21D;50070;-32.946;-60.652;2022-07-10T02:59:56;21.14;70.48
63899;HTU21D;50070;-32.946;-60.652;2022-07-10T03:02:22;21.10;70.55
63899;HTU21D;50070;-32.946;-60.652;2022-07-10T03:04:48;21.10;70.42
63899;HTU21D;50070;-32.946;-60.652;2022-07-10T03:07:15;21.06;70.52
63899;HTU21D;50070;-32.946;-60.652;2022-07-10T03:09:41;21.04;70.21
63899;HTU21D;50070;-32.946;-60.652;2022-07-10T03:12:07;20.96;70.84
63899;HTU21D;50070;-32.946;-60.652;2022-07-10T03:14:33;21.02;70.61
63899;HTU21D;50070;-32.946;-60.652;2022-07-10T03:16:59;20.99;70.93
63899;HTU21D;50070;-32.946;-60.652;2022-07-10T03:19:26;20.95;70.97
63899;HTU21D;50070;-32.946;-60.652;2022-07-10T03:21:52;21.09;70.47
63899;HTU21D;50070;-32.946;-60.652;2022-07-10T03:24:18;21.08;70.77
63899;HTU21D;50070;-32.946;-60.652;2022-07-10T03:26:45;21.13;70.87
63899;HTU21D;50070;-32.946;-60.652;2022-07-10T03:29:11;21.14;70.54
63899;HTU21D;50070;-32.946;-60.652;2022-07-10T03:31:37;21.24;70.35
63899;HTU21D;50070;-32.946;-60.652;2022-07-10T03:34:03;21.33;70.35
63899;HTU21D;50070;-32.946;-60.652;2022-07-10T03:36:30;21.34;70.11
63899;HTU21D;50070;-32.946;-60.652;2022-07-10T03:38:56;21.47;70.10
63899;HTU21D;50070;-32.946;-60.652;2022-07-10T03:41:22;21.54;69.52
63899;HTU21D;50070;-32.946;-60.652;2022-07-10T03:43:49;21.59;68.90
63899;HTU21D;50070;-32.946;-60.652;2022-07-10T03:46:15;21.66;69.29
63899;HTU21D;50070;-32.946;-60.652;2022-07-10T03:48:41;21.70;68.75
63899;HTU21D;50070;-32.946;-60.652;2022-07-10T03:51:07;21.74;68.97
63899;HTU21D;50070;-32.946;-60.652;2022-07-10T03:53:34;21.72;69.11
63899;HTU21D;50070;-32.946;-60.652;2022-07-10T03:56:00;21.75;69.03
63899;HTU21D;50070;-32.946;-60.652;2022-07-10T03:58:26;21.76;68.78
63899;HTU21D;50070;-32.946;-60.652;2022-07-10T04:00:52;21.88;68.68
63899;HTU21D;50070;-32.946;-60.652;2022-07-10T04:03:18;21.89;68.57
63899;HTU21D;50070;-32.946;-60.652;2022-07-10T04:05:44;21.82;68.72
63899;HTU21D;50070;-32.946;-60.652;2022-07-10T04:08:11;21.93;68.16
63899;HTU21D;50070;-32.946;-60.652;2022-07-10T04:10:37;21.89;67.27
63899;HTU21D;50070;-32.946;-60.652;2022-07-10T04:13:04;21.95;68.10
63899;HTU21D;50070;-32.946;-60.652;2022-07-10T04:15:30;21.94;67.74
63899;HTU21D;50070;-32.946;-60.652;2022-07-10T04:17:56;21.97;67.53
63899;HTU21D;50070;-32.946;-60.652;2022-07-10T04:20:23;21.97;67.72
63899;HTU21D;50070;-32.946;-60.652;2022-07-10T04:22:52;21.90;67.48
63899;HTU21D;50070;-32.946;-60.652;2022-07-10T04:25:18;21.89;67.58
63899;HTU21D;50070;-32.946;-60.652;2022-07-10T04:27:44;21.88;67.95
63899;HTU21D;50070;-32.946;-60.652;2022-07-10T04:30:11;21.87;68.07
63899;HTU21D;50070;-32.946;-60.652;2022-07-10T04:32:37;21.76;67.88
63899;HTU21D;50070;-32.946;-60.652;2022-07-10T04:53:51;21.75;68.01
63899;HTU21D;50070;-32.946;-60.652;2022-07-10T04:56:17;21.72;68.23
63899;HTU21D;50070;-32.946;-60.652;2022-07-10T04:58:43;21.68;68.01
63899;HTU21D;50070;-32.946;-60.652;2022-07-10T05:01:09;21.69;67.78
63899;HTU21D;50070;-32.946;-60.652;2022-07-10T05:03:36;21.67;67.80
63899;HTU21D;50070;-32.946;-60.652;2022-07-10T05:06:02;21.73;67.87
63899;HTU21D;50070;-32.946;-60.652;2022-07-10T05:08:28;21.70;67.59
63899;HTU21D;50070;-32.946;-60.652;2022-07-10T05:10:54;21.74;67.64
63899;HTU21D;50070;-32.946;-60.652;2022-07-10T05:13:20;21.68;67.77
63899;HTU21D;50070;-32.946;-60.652;2022-07-10T05:15:47;21.67;67.59
63899;HTU21D;50070;-32.946;-60.652;2022-07-10T05:18:13;21.63;67.67
63899;HTU21D;50070;-32.946;-60.652;2022-07-10T05:20:40;21.64;67.42
63899;HTU21D;50070;-32.946;-60.652;2022-07-10T05:23:09;21.63;67.40
63899;HTU21D;50070;-32.946;-60.652;2022-07-10T05:25:35;21.53;67.38
63899;HTU21D;50070;-32.946;-60.652;2022-07-10T05:28:03;21.64;66.91
63899;HTU21D;50070;-32.946;-60.652;2022-07-10T05:30:30;21.64;66.87
63899;HTU21D;50070;-32.946;-60.652;2022-07-10T05:32:56;21.65;66.80
63899;HTU21D;50070;-32.946;-60.652;2022-07-10T05:35:22;21.60;67.20
63899;HTU21D;50070;-32.946;-60.652;2022-07-10T05:37:49;21.47;67.47
63899;HTU21D;50070;-32.946;-60.652;2022-07-10T05:40:15;21.44;67.39
63899;HTU21D;50070;-32.946;-60.652;2022-07-10T05:42:41;21.42;67.52
63899;HTU21D;50070;-32.946;-60.652;2022-07-10T05:45:07;21.44;67.11
63899;HTU21D;50070;-32.946;-60.652;2022-07-10T05:47:34;21.38;67.53
63899;HTU21D;50070;-32.946;-60.652;2022-07-10T05:50:00;21.29;67.36
63899;HTU21D;50070;-32.946;-60.652;2022-07-10T05:52:27;21.32;67.46
63899;HTU21D;50070;-32.946;-60.652;2022-07-10T05:54:53;21.36;67.07
63899;HTU21D;50070;-32.946;-60.652;2022-07-10T05:57:19;21.25;67.44
63899;HTU21D;50070;-32.946;-60.652;2022-07-10T05:59:45;21.35;67.05
63899;HTU21D;50070;-32.946;-60.652;2022-07-10T06:02:11;21.38;66.87
63899;HTU21D;50070;-32.946;-60.652;2022-07-10T06:04:38;21.31;67.04
63899;HTU21D;50070;-32.946;-60.652;2022-07-10T06:07:04;21.24;67.23
63899;HTU21D;50070;-32.946;-60.652;2022-07-10T06:09:30;21.19;66.97
63899;HTU21D;50070;-32.946;-60.652;2022-07-10T06:11:56;21.22;66.91
63899;HTU21D;50070;-32.946;-60.652;2022-07-10T06:14:23;21.13;67.18
63899;HTU21D;50070;-32.946;-60.652;2022-07-10T06:16:49;21.10;67.07
63899;HTU21D;50070;-32.946;-60.652;2022-07-10T06:19:15;21.10;67.03
63899;HTU21D;50070;-32.946;-60.652;2022-07-10T06:21:43;21.22;66.68
63899;HTU21D;50070;-32.946;-60.652;2022-07-10T06:24:09;21.05;66.95
63899;HTU21D;50070;-32.946;-60.652;2022-07-10T06:26:35;21.07;66.98
63899;HTU21D;50070;-32.946;-60.652;2022-07-10T06:29:02;21.06;66.95
63899;HTU21D;50070;-32.946;-60.652;2022-07-10T06:31:28;20.99;67.09
63899;HTU21D;50070;-32.946;-60.652;2022-07-10T06:33:54;20.98;66.85
63899;HTU21D;50070;-32.946;-60.652;2022-07-10T06:36:20;21.06;66.56
63899;HTU21D;50070;-32.946;-60.652;2022-07-10T06:38:47;20.94;67.05
63899;HTU21D;50070;-32.946;-60.652;2022-07-10T06:41:13;20.95;66.78
63899;HTU21D;50070;-32.946;-60.652;2022-07-10T06:43:39;20.86;67.23
63899;HTU21D;50070;-32.946;-60.652;2022-07-10T06:46:05;20.85;67.12
63899;HTU21D;50070;-32.946;-60.652;2022-07-10T06:48:31;20.81;67.17
63899;HTU21D;50070;-32.946;-60.652;2022-07-10T06:50:58;20.76;67.43
63899;HTU21D;50070;-32.946;-60.652;2022-07-10T06:53:24;20.68;67.75
63899;HTU21D;50070;-32.946;-60.652;2022-07-10T06:55:52;20.69;67.62
63899;HTU21D;50070;-32.946;-60.652;2022-07-10T06:58:19;20.70;67.54
63899;HTU21D;50070;-32.946;-60.652;2022-07-10T07:00:45;20.68;67.46
63899;HTU21D;50070;-32.946;-60.652;2022-07-10T07:03:11;20.65;67.54
63899;HTU21D;50070;-32.946;-60.652;2022-07-10T07:05:38;20.61;67.65
63899;HTU21D;50070;-32.946;-60.652;2022-07-10T07:08:04;20.63;67.66
63899;HTU21D;50070;-32.946;-60.652;2022-07-10T07:10:31;20.57;67.92
63899;HTU21D;50070;-32.946;-60.652;2022-07-10T07:12:57;20.60;67.71
63899;HTU21D;50070;-32.946;-60.652;2022-07-10T07:15:25;20.69;67.49
63899;HTU21D;50070;-32.946;-60.652;2022-07-10T07:17:51;20.62;67.62
63899;HTU21D;50070;-32.946;-60.652;2022-07-10T07:20:43;20.50;68.13
63899;HTU21D;50070;-32.946;-60.652;2022-07-10T07:23:28;20.47;68.42
63899;HTU21D;50070;-32.946;-60.652;2022-07-10T07:25:54;20.48;68.36
63899;HTU21D;50070;-32.946;-60.652;2022-07-10T07:28:23;20.51;68.10
63899;HTU21D;50070;-32.946;-60.652;2022-07-10T07:30:49;20.57;67.98
63899;HTU21D;50070;-32.946;-60.652;2022-07-10T07:33:16;20.56;68.11
63899;HTU21D;50070;-32.946;-60.652;2022-07-10T07:35:42;20.69;67.76
63899;HTU21D;50070;-32.946;-60.652;2022-07-10T07:38:08;20.66;68.02
63899;HTU21D;50070;-32.946;-60.652;2022-07-10T07:40:35;20.60;67.82
63899;HTU21D;50070;-32.946;-60.652;2022-07-10T07:43:03;20.56;69.26
63899;HTU21D;50070;-32.946;-60.652;2022-07-10T07:45:29;20.44;70.42
63899;HTU21D;50070;-32.946;-60.652;2022-07-10T07:47:56;20.44;70.64
63899;HTU21D;50070;-32.946;-60.652;2022-07-10T07:50:34;20.29;71.58
63899;HTU21D;50070;-32.946;-60.652;2022-07-10T07:53:01;20.31;71.77
63899;HTU21D;50070;-32.946;-60.652;2022-07-10T07:55:28;20.24;72.04
63899;HTU21D;50070;-32.946;-60.652;2022-07-10T07:57:55;20.31;71.84
63899;HTU21D;50070;-32.946;-60.652;2022-07-10T08:00:22;20.05;73.02
63899;HTU21D;50070;-32.946;-60.652;2022-07-10T08:02:49;20.03;73.04
63899;HTU21D;50070;-32.946;-60.652;2022-07-10T08:05:16;19.89;73.63
63899;HTU21D;50070;-32.946;-60.652;2022-07-10T08:07:43;19.95;73.38
63899;HTU21D;50070;-32.946;-60.652;2022-07-10T08:10:11;20.00;72.90
63899;HTU21D;50070;-32.946;-60.652;2022-07-10T08:12:39;20.00;73.17
63899;HTU21D;50070;-32.946;-60.652;2022-07-10T08:15:10;19.83;73.83
63899;HTU21D;50070;-32.946;-60.652;2022-07-10T08:17:37;19.68;74.41
63899;HTU21D;50070;-32.946;-60.652;2022-07-10T08:20:04;19.87;73.57
63899;HTU21D;50070;-32.946;-60.652;2022-07-10T08:22:31;19.75;73.94
63899;HTU21D;50070;-32.946;-60.652;2022-07-10T08:24:58;19.83;73.41
63899;HTU21D;50070;-32.946;-60.652;2022-07-10T08:27:24;19.81;73.67
63899;HTU21D;50070;-32.946;-60.652;2022-07-10T08:29:51;19.76;73.86
63899;HTU21D;50070;-32.946;-60.652;2022-07-10T08:32:17;19.70;74.27
63899;HTU21D;50070;-32.946;-60.652;2022-07-10T08:34:44;19.69;74.31
63899;HTU21D;50070;-32.946;-60.652;2022-07-10T08:37:10;19.84;73.41
63899;HTU21D;50070;-32.946;-60.652;2022-07-10T08:39:36;19.79;73.62
63899;HTU21D;50070;-32.946;-60.652;2022-07-10T08:42:08;19.84;73.69
63899;HTU21D;50070;-32.946;-60.652;2022-07-10T08:44:36;19.74;74.09
63899;HTU21D;50070;-32.946;-60.652;2022-07-10T08:47:03;19.97;73.27
63899;HTU21D;50070;-32.946;-60.652;2022-07-10T08:49:30;20.14;72.03
63899;HTU21D;50070;-32.946;-60.652;2022-07-10T08:52:08;19.91;72.88
63899;HTU21D;50070;-32.946;-60.652;2022-07-10T08:54:38;19.97;72.77
63899;HTU21D;50070;-32.946;-60.652;2022-07-10T08:57:05;19.73;73.96
63899;HTU21D;50070;-32.946;-60.652;2022-07-10T08:59:31;19.67;74.23
63899;HTU21D;50070;-32.946;-60.652;2022-07-10T09:01:58;19.85;73.48
63899;HTU21D;50070;-32.946;-60.652;2022-07-10T09:04:25;19.66;73.67
63899;HTU21D;50070;-32.946;-60.652;2022-07-10T09:06:51;19.80;73.48
63899;HTU21D;50070;-32.946;-60.652;2022-07-10T09:09:18;19.83;73.40
63899;HTU21D;50070;-32.946;-60.652;2022-07-10T09:11:44;19.88;73.37
63899;HTU21D;50070;-32.946;-60.652;2022-07-10T09:14:14;19.77;73.42
63899;HTU21D;50070;-32.946;-60.652;2022-07-10T09:16:42;19.81;72.87
63899;HTU21D;50070;-32.946;-60.652;2022-07-10T09:19:25;19.79;72.78
63899;HTU21D;50070;-32.946;-60.652;2022-07-10T09:21:52;19.90;72.70
63899;HTU21D;50070;-32.946;-60.652;2022-07-10T09:24:19;19.94;72.60
63899;HTU21D;50070;-32.946;-60.652;2022-07-10T09:26:59;19.89;73.28
63899;HTU21D;50070;-32.946;-60.652;2022-07-10T09:29:51;19.81;73.56
63899;HTU21D;50070;-32.946;-60.652;2022-07-10T09:32:20;19.66;74.01
63899;HTU21D;50070;-32.946;-60.652;2022-07-10T09:34:47;19.79;73.57
63899;HTU21D;50070;-32.946;-60.652;2022-07-10T09:37:17;19.79;73.52
63899;HTU21D;50070;-32.946;-60.652;2022-07-10T09:39:54;19.66;73.48
63899;HTU21D;50070;-32.946;-60.652;2022-07-10T09:42:36;19.87;73.01
63899;HTU21D;50070;-32.946;-60.652;2022-07-10T09:47:38;19.52;74.40
63899;HTU21D;50070;-32.946;-60.652;2022-07-10T09:50:19;19.41;74.80
63899;HTU21D;50070;-32.946;-60.652;2022-07-10T09:52:46;19.65;74.09
63899;HTU21D;50070;-32.946;-60.652;2022-07-10T09:55:13;19.44;74.30
63899;HTU21D;50070;-32.946;-60.652;2022-07-10T09:57:42;19.26;75.62
63899;HTU21D;50070;-32.946;-60.652;2022-07-10T10:00:09;19.31;75.20
63899;HTU21D;50070;-32.946;-60.652;2022-07-10T10:02:36;19.26;75.17
63899;HTU21D;50070;-32.946;-60.652;2022-07-10T10:05:04;19.25;75.31
63899;HTU21D;50070;-32.946;-60.652;2022-07-10T10:07:31;19.20;75.57
63899;HTU21D;50070;-32.946;-60.652;2022-07-10T10:09:58;19.32;75.18
63899;HTU21D;50070;-32.946;-60.652;2022-07-10T10:12:39;19.40;74.92
63899;HTU21D;50070;-32.946;-60.652;2022-07-10T10:15:10;19.41;74.63
63899;HTU21D;50070;-32.946;-60.652;2022-07-10T10:17:38;19.20;75.52
63899;HTU21D;50070;-32.946;-60.652;2022-07-10T10:20:05;19.14;75.74
63899;HTU21D;50070;-32.946;-60.652;2022-07-10T10:22:50;19.03;75.86
63899;HTU21D;50070;-32.946;-60.652;2022-07-10T10:25:18;18.83;77.12
63899;HTU21D;50070;-32.946;-60.652;2022-07-10T10:27:44;19.01;76.41
63899;HTU21D;50070;-32.946;-60.652;2022-07-10T10:30:11;18.94;76.08
63899;HTU21D;50070;-32.946;-60.652;2022-07-10T10:32:40;18.83;77.01
63899;HTU21D;50070;-32.946;-60.652;2022-07-10T10:35:07;18.83;76.71
63899;HTU21D;50070;-32.946;-60.652;2022-07-10T10:40:02;18.81;76.12
63899;HTU21D;50070;-32.946;-60.652;2022-07-10T10:42:35;18.44;77.51
63899;HTU21D;50070;-32.946;-60.652;2022-07-10T10:48:07;18.53;76.82
63899;HTU21D;50070;-32.946;-60.652;2022-07-10T10:50:38;18.41;77.24
63899;HTU21D;50070;-32.946;-60.652;2022-07-10T10:53:04;18.36;77.35
63899;HTU21D;50070;-32.946;-60.652;2022-07-10T10:55:31;18.09;78.36
63899;HTU21D;50070;-32.946;-60.652;2022-07-10T10:58:15;18.09;78.18
63899;HTU21D;50070;-32.946;-60.652;2022-07-10T11:00:43;18.09;78.00
63899;HTU21D;50070;-32.946;-60.652;2022-07-10T11:03:13;18.15;77.62
63899;HTU21D;50070;-32.946;-60.652;2022-07-10T11:05:41;17.96;77.84
63899;HTU21D;50070;-32.946;-60.652;2022-07-10T11:08:07;17.97;77.76
63899;HTU21D;50070;-32.946;-60.652;2022-07-10T11:10:37;17.79;78.35
63899;HTU21D;50070;-32.946;-60.652;2022-07-10T11:13:07;17.67;78.14
63899;HTU21D;50070;-32.946;-60.652;2022-07-10T11:15:34;17.49;78.55
63899;HTU21D;50070;-32.946;-60.652;2022-07-10T11:18:11;17.24;79.10
63899;HTU21D;50070;-32.946;-60.652;2022-07-10T11:20:38;17.41;78.03
63899;HTU21D;50070;-32.946;-60.652;2022-07-10T11:26:03;17.37;77.00
63899;HTU21D;50070;-32.946;-60.652;2022-07-10T11:28:41;17.47;76.10
63899;HTU21D;50070;-32.946;-60.652;2022-07-10T11:31:07;17.51;75.50
63899;HTU21D;50070;-32.946;-60.652;2022-07-10T11:33:40;17.55;74.80
63899;HTU21D;50070;-32.946;-60.652;2022-07-10T11:36:12;17.46;74.28
63899;HTU21D;50070;-32.946;-60.652;2022-07-10T11:38:39;17.32;74.56
63899;HTU21D;50070;-32.946;-60.652;2022-07-10T11:41:19;17.06;75.26
63899;HTU21D;50070;-32.946;-60.652;2022-07-10T11:43:53;16.79;76.25
63899;HTU21D;50070;-32.946;-60.652;2022-07-10T11:46:21;17.01;75.15
63899;HTU21D;50070;-32.946;-60.652;2022-07-10T11:48:48;16.95;74.96
63899;HTU21D;50070;-32.946;-60.652;2022-07-10T11:51:24;16.69;75.63
63899;HTU21D;50070;-32.946;-60.652;2022-07-10T11:53:58;16.80;74.90
63899;HTU21D;50070;-32.946;-60.652;2022-07-10T11:56:25;16.74;75.29
63899;HTU21D;50070;-32.946;-60.652;2022-07-10T11:58:55;16.69;74.84
63899;HTU21D;50070;-32.946;-60.652;2022-07-10T12:01:21;16.73;74.80
63899;HTU21D;50070;-32.946;-60.652;2022-07-10T12:04:21;16.62;74.49
63899;HTU21D;50070;-32.946;-60.652;2022-07-10T12:06:40;16.51;74.51
63899;HTU21D;50070;-32.946;-60.652;2022-07-10T12:09:07;16.43;74.42
63899;HTU21D;50070;-32.946;-60.652;2022-07-10T12:11:34;16.25;75.05
63899;HTU21D;50070;-32.946;-60.652;2022-07-10T12:16:46;16.59;73.54
63899;HTU21D;50070;-32.946;-60.652;2022-07-10T12:19:16;16.51;73.60
63899;HTU21D;50070;-32.946;-60.652;2022-07-10T12:21:44;16.31;74.29
63899;HTU21D;50070;-32.946;-60.652;2022-07-10T12:24:11;16.47;73.70
63899;HTU21D;50070;-32.946;-60.652;2022-07-10T12:26:39;16.29;74.16
63899;HTU21D;50070;-32.946;-60.652;2022-07-10T12:29:05;16.30;74.52
63899;HTU21D;50070;-32.946;-60.652;2022-07-10T12:31:32;16.50;73.57
63899;HTU21D;50070;-32.946;-60.652;2022-07-10T12:33:59;16.48;73.74
63899;HTU21D;50070;-32.946;-60.652;2022-07-10T12:36:41;16.48;73.94
63899;HTU21D;50070;-32.946;-60.652;2022-07-10T12:39:09;16.39;74.00
63899;HTU21D;50070;-32.946;-60.652;2022-07-10T12:41:52;16.59;73.49
63899;HTU21D;50070;-32.946;-60.652;2022-07-10T12:47:03;16.66;73.51
63899;HTU21D;50070;-32.946;-60.652;2022-07-10T12:49:29;16.81;72.70
63899;HTU21D;50070;-32.946;-60.652;2022-07-10T12:51:55;16.70;73.26
63899;HTU21D;50070;-32.946;-60.652;2022-07-10T12:54:32;16.67;73.44
63899;HTU21D;50070;-32.946;-60.652;2022-07-10T12:56:59;16.82;73.20
63899;HTU21D;50070;-32.946;-60.652;2022-07-10T12:59:28;16.80;72.77
63899;HTU21D;50070;-32.946;-60.652;2022-07-10T13:01:55;16.87;72.63
63899;HTU21D;50070;-32.946;-60.652;2022-07-10T13:04:24;16.77;72.93
63899;HTU21D;50070;-32.946;-60.652;2022-07-10T13:06:52;16.86;72.72
63899;HTU21D;50070;-32.946;-60.652;2022-07-10T13:09:20;16.59;73.93
63899;HTU21D;50070;-32.946;-60.652;2022-07-10T13:11:47;16.47;74.49
63899;HTU21D;50070;-32.946;-60.652;2022-07-10T13:14:14;16.55;74.51
63899;HTU21D;50070;-32.946;-60.652;2022-07-10T13:16:40;16.92;73.25
63899;HTU21D;50070;-32.946;-60.652;2022-07-10T13:19:06;16.93;72.96
63899;HTU21D;50070;-32.946;-60.652;2022-07-10T13:21:33;16.88;73.30
63899;HTU21D;50070;-32.946;-60.652;2022-07-10T13:23:59;16.75;74.17
63899;HTU21D;50070;-32.946;-60.652;2022-07-10T13:26:25;16.85;73.99
63899;HTU21D;50070;-32.946;-60.652;2022-07-10T13:28:52;16.65;75.02
63899;HTU21D;50070;-32.946;-60.652;2022-07-10T13:31:18;16.39;76.46
63899;HTU21D;50070;-32.946;-60.652;2022-07-10T13:33:44;16.36;76.95
63899;HTU21D;50070;-32.946;-60.652;2022-07-10T13:36:10;16.50;76.48
63899;HTU21D;50070;-32.946;-60.652;2022-07-10T13:38:36;16.52;76.57
63899;HTU21D;50070;-32.946;-60.652;2022-07-10T13:41:03;16.02;78.51
63899;HTU21D;50070;-32.946;-60.652;2022-07-10T13:43:29;16.05;78.50
63899;HTU21D;50070;-32.946;-60.652;2022-07-10T13:45:58;15.84;79.50
63899;HTU21D;50070;-32.946;-60.652;2022-07-10T13:48:25;16.08;78.72
63899;HTU21D;50070;-32.946;-60.652;2022-07-10T13:50:51;16.25;77.92
63899;HTU21D;50070;-32.946;-60.652;2022-07-10T13:53:18;16.29;77.41
63899;HTU21D;50070;-32.946;-60.652;2022-07-10T13:55:44;16.13;77.76
63899;HTU21D;50070;-32.946;-60.652;2022-07-10T13:58:11;15.85;78.90
63899;HTU21D;50070;-32.946;-60.652;2022-07-10T14:00:38;16.03;77.77
63899;HTU21D;50070;-32.946;-60.652;2022-07-10T14:03:04;15.58;79.71
63899;HTU21D;50070;-32.946;-60.652;2022-07-10T14:05:31;15.60;79.54
63899;HTU21D;50070;-32.946;-60.652;2022-07-10T14:07:58;15.68;79.31
63899;HTU21D;50070;-32.946;-60.652;2022-07-10T14:10:24;15.48;80.52
63899;HTU21D;50070;-32.946;-60.652;2022-07-10T14:12:54;15.52;80.72
63899;HTU21D;50070;-32.946;-60.652;2022-07-10T14:15:20;15.49;80.90
63899;HTU21D;50070;-32.946;-60.652;2022-07-10T14:17:47;15.68;80.07
63899;HTU21D;50070;-32.946;-60.652;2022-07-10T14:20:14;15.78;79.49
63899;HTU21D;50070;-32.946;-60.652;2022-07-10T14:22:40;15.49;81.06
63899;HTU21D;50070;-32.946;-60.652;2022-07-10T14:25:09;15.51;81.14
63899;HTU21D;50070;-32.946;-60.652;2022-07-10T14:27:35;15.47;81.60
63899;HTU21D;50070;-32.946;-60.652;2022-07-10T14:30:01;15.43;81.62
63899;HTU21D;50070;-32.946;-60.652;2022-07-10T14:32:27;15.09;83.58
63899;HTU21D;50070;-32.946;-60.652;2022-07-10T14:34:54;15.13;83.58
63899;HTU21D;50070;-32.946;-60.652;2022-07-10T14:37:20;15.29;83.01
63899;HTU21D;50070;-32.946;-60.652;2022-07-10T14:39:47;15.22;83.54
63899;HTU21D;50070;-32.946;-60.652;2022-07-10T14:42:14;15.34;83.34
63899;HTU21D;50070;-32.946;-60.652;2022-07-10T14:44:40;15.19;83.96
63899;HTU21D;50070;-32.946;-60.652;2022-07-10T14:47:07;15.54;82.49
63899;HTU21D;50070;-32.946;-60.652;2022-07-10T14:49:33;15.31;83.48
63899;HTU21D;50070;-32.946;-60.652;2022-07-10T14:51:59;15.48;82.82
63899;HTU21D;50070;-32.946;-60.652;2022-07-10T14:54:26;15.70;81.64
63899;HTU21D;50070;-32.946;-60.652;2022-07-10T14:56:52;15.51;82.47
63899;HTU21D;50070;-32.946;-60.652;2022-07-10T14:59:18;15.33;83.33
63899;HTU21D;50070;-32.946;-60.652;2022-07-10T15:01:44;15.66;81.84
63899;HTU21D;50070;-32.946;-60.652;2022-07-10T15:04:11;15.66;81.78
63899;HTU21D;50070;-32.946;-60.652;2022-07-10T15:06:37;15.57;82.13
63899;HTU21D;50070;-32.946;-60.652;2022-07-10T15:09:03;15.33;83.47
63899;HTU21D;50070;-32.946;-60.652;2022-07-10T15:11:29;15.81;81.33
63899;HTU21D;50070;-32.946;-60.652;2022-07-10T15:13:56;15.73;81.45